LGL53RC ELLX-LIRF
Flight info
| Callsign | LGL53RC |
|---|---|
| Flight time | N/A |
| Altitude | 35000 |
| Route | GTQ DCT DEVDI DCT ODINA DCT EKPAL DCT TINKU DCT XIBIL |
| Aircraft | B738/M-SDE2E3FGHIRWXY/LB1 |
Departure
| Time | 2026-05-04 23:18 |
|---|---|
| Airport | Luxembourg-Findel International Airport (ELLX) |
Arrival
| Time | N/A |
|---|---|
| Airport | Rome–Fiumicino Leonardo da Vinci International Airport (LIRF) |
| Time | Latitude | Longitude | Altitude | Speed | Heading |
|---|---|---|---|---|---|
| 2026-05-04 23:16 | 49.63607 | 6.23209 | 1222 ft | 24 kts | 60° |
| 2026-05-04 23:17 | 49.63665 | 6.23409 | 1221 ft | 19 kts | 103° |
| 2026-05-04 23:17 | 49.63561 | 6.23520 | 1222 ft | 18 kts | 152° |
| 2026-05-04 23:17 | 49.63498 | 6.23445 | 1223 ft | 13 kts | 240° |
| 2026-05-04 23:17 | 49.63420 | 6.23238 | 1221 ft | 48 kts | 239° |
| 2026-05-04 23:18 | 49.63133 | 6.22468 | 1220 ft | 115 kts | 240° |
| 2026-05-04 23:18 | 49.62640 | 6.21142 | 1245 ft | 168 kts | 239° |
| 2026-05-04 23:18 | 49.62025 | 6.19484 | 1738 ft | 180 kts | 239° |
| 2026-05-04 23:18 | 49.61400 | 6.17788 | 2494 ft | 185 kts | 240° |
| 2026-05-04 23:19 | 49.60768 | 6.16048 | 3198 ft | 191 kts | 238° |
| 2026-05-04 23:19 | 49.60092 | 6.14257 | 3812 ft | 199 kts | 239° |
| 2026-05-04 23:19 | 49.59360 | 6.12325 | 4063 ft | 222 kts | 234° |
| 2026-05-04 23:19 | 49.58131 | 6.10759 | 4288 ft | 242 kts | 199° |
| 2026-05-04 23:20 | 49.56409 | 6.10617 | 4742 ft | 259 kts | 162° |
| 2026-05-04 23:20 | 49.54886 | 6.12096 | 5597 ft | 265 kts | 136° |
| 2026-05-04 23:20 | 49.53835 | 6.14462 | 6353 ft | 272 kts | 121° |
| 2026-05-04 23:20 | 49.52935 | 6.17050 | 7146 ft | 276 kts | 122° |
| 2026-05-04 23:21 | 49.52003 | 6.19645 | 7935 ft | 278 kts | 123° |
| 2026-05-04 23:21 | 49.51048 | 6.22216 | 8698 ft | 282 kts | 123° |
| 2026-05-04 23:21 | 49.50031 | 6.24803 | 9441 ft | 283 kts | 132° |
| 2026-05-04 23:21 | 49.48549 | 6.26715 | 10169 ft | 279 kts | 154° |
| 2026-05-04 23:22 | 49.46745 | 6.28031 | 10500 ft | 298 kts | 159° |
| 2026-05-04 23:22 | 49.44775 | 6.29336 | 10666 ft | 320 kts | 159° |
| 2026-05-04 23:22 | 49.42658 | 6.30750 | 10859 ft | 342 kts | 158° |
| 2026-05-04 23:22 | 49.40421 | 6.32273 | 11063 ft | 360 kts | 158° |
| 2026-05-04 23:23 | 49.38103 | 6.33867 | 11531 ft | 369 kts | 158° |
| 2026-05-04 23:23 | 49.35786 | 6.35465 | 12145 ft | 372 kts | 158° |
| 2026-05-04 23:23 | 49.33422 | 6.37092 | 12811 ft | 374 kts | 158° |
| 2026-05-04 23:23 | 49.31035 | 6.38732 | 13434 ft | 378 kts | 158° |
| 2026-05-04 23:24 | 49.28620 | 6.40387 | 14024 ft | 382 kts | 158° |
| 2026-05-04 23:24 | 49.26178 | 6.42061 | 14631 ft | 386 kts | 158° |
| 2026-05-04 23:24 | 49.23720 | 6.43743 | 15214 ft | 389 kts | 158° |
| 2026-05-04 23:24 | 49.21275 | 6.45576 | 15761 ft | 395 kts | 150° |
| 2026-05-04 23:25 | 49.19016 | 6.48031 | 16317 ft | 400 kts | 145° |
| 2026-05-04 23:25 | 49.16837 | 6.50622 | 16834 ft | 404 kts | 144° |
| 2026-05-04 23:25 | 49.14609 | 6.53276 | 17328 ft | 408 kts | 144° |
| 2026-05-04 23:25 | 49.12348 | 6.55933 | 17841 ft | 411 kts | 145° |
| 2026-05-04 23:26 | 49.10061 | 6.58577 | 18364 ft | 414 kts | 146° |
| 2026-05-04 23:26 | 49.08020 | 6.60911 | 18800 ft | 416 kts | 146° |
| 2026-05-04 23:26 | 49.05689 | 6.63563 | 19292 ft | 419 kts | 146° |
| 2026-05-04 23:26 | 49.03339 | 6.66228 | 19801 ft | 422 kts | 146° |
| 2026-05-04 23:27 | 49.00984 | 6.68897 | 20295 ft | 424 kts | 146° |
| 2026-05-04 23:27 | 48.98599 | 6.71564 | 20752 ft | 425 kts | 149° |
| 2026-05-04 23:27 | 48.96024 | 6.73730 | 21172 ft | 424 kts | 158° |
| 2026-05-04 23:27 | 48.93360 | 6.75533 | 21600 ft | 426 kts | 159° |
| 2026-05-04 23:28 | 48.90625 | 6.77304 | 22009 ft | 428 kts | 160° |
| 2026-05-04 23:28 | 48.87876 | 6.79079 | 22417 ft | 431 kts | 160° |
| 2026-05-04 23:28 | 48.85121 | 6.80879 | 22832 ft | 432 kts | 159° |
| 2026-05-04 23:28 | 48.82357 | 6.82713 | 23215 ft | 435 kts | 159° |
| 2026-05-04 23:29 | 48.79583 | 6.84574 | 23574 ft | 437 kts | 159° |
| 2026-05-04 23:29 | 48.76797 | 6.86455 | 23937 ft | 439 kts | 159° |
| 2026-05-04 23:29 | 48.74004 | 6.88348 | 24292 ft | 441 kts | 159° |
| 2026-05-04 23:29 | 48.71199 | 6.90251 | 24630 ft | 443 kts | 159° |
| 2026-05-04 23:30 | 48.68417 | 6.92136 | 24968 ft | 445 kts | 159° |
| 2026-05-04 23:30 | 48.65582 | 6.94055 | 25306 ft | 447 kts | 159° |
| 2026-05-04 23:30 | 48.62743 | 6.95973 | 25629 ft | 448 kts | 159° |
| 2026-05-04 23:30 | 48.59886 | 6.97901 | 25931 ft | 450 kts | 159° |
| 2026-05-04 23:31 | 48.57026 | 6.99827 | 26233 ft | 452 kts | 159° |
| 2026-05-04 23:31 | 48.54157 | 7.01761 | 26642 ft | 451 kts | 159° |
| 2026-05-04 23:31 | 48.51303 | 7.03680 | 27137 ft | 447 kts | 159° |
| 2026-05-04 23:31 | 48.48472 | 7.05580 | 27603 ft | 445 kts | 159° |
| 2026-05-04 23:32 | 48.45679 | 7.07451 | 27962 ft | 445 kts | 159° |
| 2026-05-04 23:32 | 48.42856 | 7.09340 | 28348 ft | 444 kts | 159° |
| 2026-05-04 23:32 | 48.40037 | 7.11224 | 28769 ft | 442 kts | 160° |
| 2026-05-04 23:32 | 48.37239 | 7.13093 | 29197 ft | 439 kts | 160° |
| 2026-05-04 23:33 | 48.34446 | 7.14956 | 29595 ft | 438 kts | 160° |
| 2026-05-04 23:33 | 48.31664 | 7.16809 | 30002 ft | 436 kts | 160° |
| 2026-05-04 23:33 | 48.28899 | 7.18649 | 30356 ft | 435 kts | 160° |
| 2026-05-04 23:33 | 48.26132 | 7.20487 | 30653 ft | 435 kts | 160° |
| 2026-05-04 23:34 | 48.23358 | 7.22327 | 30924 ft | 436 kts | 160° |
| 2026-05-04 23:34 | 48.20581 | 7.24165 | 31217 ft | 436 kts | 160° |
| 2026-05-04 23:34 | 48.17844 | 7.25979 | 31503 ft | 436 kts | 160° |
| 2026-05-04 23:34 | 48.15067 | 7.27817 | 31810 ft | 436 kts | 160° |
| 2026-05-04 23:35 | 48.12298 | 7.29647 | 32121 ft | 436 kts | 160° |
| 2026-05-04 23:35 | 48.09523 | 7.31478 | 32370 ft | 436 kts | 160° |
| 2026-05-04 23:35 | 48.06741 | 7.33311 | 32584 ft | 437 kts | 160° |
| 2026-05-04 23:35 | 48.03953 | 7.35146 | 32834 ft | 438 kts | 160° |
| 2026-05-04 23:36 | 48.01171 | 7.36975 | 33099 ft | 437 kts | 160° |
| 2026-05-04 23:36 | 47.98384 | 7.38805 | 33295 ft | 438 kts | 160° |
| 2026-05-04 23:36 | 47.95591 | 7.40638 | 33474 ft | 440 kts | 160° |
| 2026-05-04 23:36 | 47.92814 | 7.42457 | 33626 ft | 442 kts | 160° |
| 2026-05-04 23:37 | 47.90003 | 7.44298 | 33890 ft | 441 kts | 160° |
| 2026-05-04 23:37 | 47.87198 | 7.46132 | 34175 ft | 440 kts | 161° |
| 2026-05-04 23:37 | 47.84391 | 7.47967 | 34403 ft | 440 kts | 161° |
| 2026-05-04 23:37 | 47.81586 | 7.49796 | 34590 ft | 441 kts | 160° |
| 2026-05-04 23:38 | 47.78770 | 7.51631 | 34793 ft | 441 kts | 160° |
| 2026-05-04 23:38 | 47.75958 | 7.53460 | 34950 ft | 442 kts | 160° |
| 2026-05-04 23:38 | 47.70335 | 7.57212 | 34977 ft | 450 kts | 159° |
| 2026-05-04 23:39 | 47.64629 | 7.61255 | 34976 ft | 457 kts | 158° |
| 2026-05-04 23:39 | 47.58890 | 7.65342 | 34960 ft | 458 kts | 158° |
| 2026-05-04 23:40 | 47.53143 | 7.69396 | 34971 ft | 459 kts | 158° |
| 2026-05-04 23:40 | 47.47370 | 7.73441 | 34965 ft | 458 kts | 159° |
| 2026-05-04 23:41 | 47.41662 | 7.77424 | 34978 ft | 456 kts | 159° |
| 2026-05-04 23:41 | 47.35928 | 7.81416 | 34971 ft | 455 kts | 159° |
| 2026-05-04 23:42 | 47.30208 | 7.85390 | 35002 ft | 454 kts | 159° |
| 2026-05-04 23:42 | 47.24495 | 7.89349 | 35001 ft | 454 kts | 159° |
| 2026-05-04 23:43 | 47.18811 | 7.93276 | 34985 ft | 454 kts | 159° |
| 2026-05-04 23:43 | 47.13090 | 7.97223 | 35001 ft | 454 kts | 159° |
| 2026-05-04 23:44 | 47.07375 | 8.01158 | 34999 ft | 454 kts | 159° |
| 2026-05-04 23:44 | 47.01652 | 8.05084 | 34983 ft | 454 kts | 158° |
| 2026-05-04 23:45 | 46.95964 | 8.08980 | 34998 ft | 454 kts | 158° |
| 2026-05-04 23:45 | 46.90232 | 8.12896 | 34987 ft | 455 kts | 158° |
| 2026-05-04 23:46 | 46.84500 | 8.16803 | 34985 ft | 455 kts | 158° |
| 2026-05-04 23:46 | 46.78763 | 8.20704 | 34995 ft | 455 kts | 158° |
| 2026-05-04 23:47 | 46.73028 | 8.24595 | 34993 ft | 455 kts | 158° |
| 2026-05-04 23:47 | 46.67286 | 8.28482 | 35003 ft | 455 kts | 158° |
| 2026-05-04 23:48 | 46.61575 | 8.32336 | 35012 ft | 456 kts | 158° |
| 2026-05-04 23:48 | 46.55818 | 8.36215 | 35000 ft | 456 kts | 158° |
| 2026-05-04 23:49 | 46.50061 | 8.40085 | 35004 ft | 456 kts | 158° |
| 2026-05-04 23:49 | 46.44307 | 8.43942 | 35011 ft | 455 kts | 158° |
| 2026-05-04 23:50 | 46.38593 | 8.47765 | 35028 ft | 455 kts | 158° |
| 2026-05-04 23:50 | 46.32852 | 8.51597 | 35036 ft | 454 kts | 158° |
| 2026-05-04 23:51 | 46.27117 | 8.55417 | 35054 ft | 454 kts | 158° |
| 2026-05-04 23:51 | 46.21373 | 8.59231 | 35043 ft | 454 kts | 158° |
| 2026-05-04 23:52 | 46.15680 | 8.63007 | 35077 ft | 453 kts | 158° |
| 2026-05-04 23:52 | 46.09967 | 8.66854 | 35066 ft | 455 kts | 154° |
| 2026-05-04 23:53 | 46.04614 | 8.71773 | 35076 ft | 458 kts | 149° |
| 2026-05-04 23:53 | 45.99342 | 8.76941 | 35082 ft | 459 kts | 149° |
| 2026-05-04 23:54 | 45.94069 | 8.82048 | 35076 ft | 461 kts | 150° |
| 2026-05-04 23:54 | 45.88717 | 8.87155 | 35067 ft | 462 kts | 150° |
| 2026-05-04 23:55 | 45.83335 | 8.92252 | 35052 ft | 464 kts | 150° |
| 2026-05-04 23:56 | 45.75245 | 8.99891 | 35047 ft | 464 kts | 150° |
| 2026-05-04 23:56 | 45.69883 | 9.04940 | 35046 ft | 465 kts | 150° |
| 2026-05-04 23:57 | 45.64483 | 9.10013 | 35045 ft | 464 kts | 150° |
| 2026-05-04 23:57 | 45.59078 | 9.15077 | 35045 ft | 464 kts | 150° |
| 2026-05-04 23:58 | 45.53684 | 9.20123 | 35056 ft | 463 kts | 150° |
| 2026-05-04 23:58 | 45.48288 | 9.25157 | 35046 ft | 464 kts | 150° |
| 2026-05-04 23:59 | 45.42923 | 9.30150 | 35049 ft | 464 kts | 150° |
| 2026-05-04 23:59 | 45.37523 | 9.35164 | 35048 ft | 464 kts | 151° |
| 2026-05-05 00:00 | 45.32115 | 9.40175 | 35046 ft | 464 kts | 151° |
| 2026-05-05 00:00 | 45.26706 | 9.45175 | 35048 ft | 464 kts | 151° |
| 2026-05-05 00:01 | 45.21325 | 9.50136 | 35051 ft | 464 kts | 151° |
| 2026-05-05 00:01 | 45.15903 | 9.55126 | 35060 ft | 465 kts | 151° |
| 2026-05-05 00:02 | 45.10478 | 9.60106 | 35050 ft | 465 kts | 151° |
| 2026-05-05 00:02 | 45.05045 | 9.65082 | 35056 ft | 465 kts | 152° |
| 2026-05-05 00:03 | 44.99603 | 9.70055 | 35055 ft | 466 kts | 152° |
| 2026-05-05 00:03 | 44.94189 | 9.74990 | 35059 ft | 466 kts | 152° |
| 2026-05-05 00:04 | 44.88743 | 9.79946 | 35063 ft | 466 kts | 152° |
| 2026-05-05 00:04 | 44.83287 | 9.84895 | 35067 ft | 466 kts | 152° |
| 2026-05-05 00:05 | 44.77831 | 9.89835 | 35077 ft | 467 kts | 153° |
| 2026-05-05 00:05 | 44.72354 | 9.94784 | 35076 ft | 468 kts | 153° |
| 2026-05-05 00:06 | 44.66908 | 9.99694 | 35064 ft | 468 kts | 153° |
| 2026-05-05 00:06 | 44.61428 | 10.04623 | 35084 ft | 467 kts | 153° |
| 2026-05-05 00:07 | 44.55938 | 10.09551 | 35104 ft | 469 kts | 153° |
| 2026-05-05 00:07 | 44.50435 | 10.14481 | 35099 ft | 470 kts | 153° |
| 2026-05-05 00:08 | 44.44649 | 10.18489 | 35121 ft | 460 kts | 166° |
| 2026-05-05 00:08 | 44.38671 | 10.21557 | 35106 ft | 461 kts | 166° |
| 2026-05-05 00:09 | 44.34243 | 10.23827 | 35113 ft | 462 kts | 166° |
| 2026-05-05 00:09 | 44.28210 | 10.26974 | 35112 ft | 463 kts | 166° |
| 2026-05-05 00:10 | 44.22183 | 10.30147 | 35115 ft | 463 kts | 166° |
| 2026-05-05 00:10 | 44.20585 | 10.30991 | 35124 ft | 462 kts | 166° |
| 2026-05-05 00:11 | 44.15823 | 10.33498 | 35097 ft | 457 kts | 165° |
| 2026-05-05 00:11 | 44.09937 | 10.36589 | 35079 ft | 451 kts | 165° |
| 2026-05-05 00:12 | 44.04065 | 10.39657 | 35117 ft | 452 kts | 165° |
| 2026-05-05 00:12 | 43.98158 | 10.42736 | 35105 ft | 455 kts | 165° |
| 2026-05-05 00:13 | 43.92267 | 10.45807 | 35101 ft | 456 kts | 165° |
| 2026-05-05 00:13 | 43.86324 | 10.48899 | 35082 ft | 457 kts | 165° |
| 2026-05-05 00:14 | 43.80364 | 10.51994 | 35095 ft | 457 kts | 165° |
| 2026-05-05 00:14 | 43.75664 | 10.54425 | 35082 ft | 458 kts | 166° |
| 2026-05-05 00:15 | 43.74656 | 10.54930 | 35078 ft | 457 kts | 166° |